aviador You're here:

CYXR Decoded Metar

EARLTON in ON, CANADA
Report Time2018-06-23 11:00:00
UTC Time2018-06-23 11:55:12
Flight Rules vfr VFR
Wind180° at 02 kt
W.Decomp.*RWY 16: 1.7 kt HW 1.1 kt RCW
RWY 26: 0.7 kt HW 1.9 kt LCW
W.Rank180° ranks 15
Current wind is below 180° avg. (8.5)
Visibility9999 m
Phenomena:N/A
Clouds:N/A
Expected CloudBase > 800 ft AGL from Temp-Dew spread
CeilingNone
Temp13°C (ISA -0)
Dew Point11°C (88% RH)
AAT12.6°C
QNH1010 hPa
Density Alt1,030 ft
Elevation797 ft
Report Wrong Elevation
Raw Report
CYXR 231100Z AUTO 18002KT 9SM CLR 13/11 A2983 RMK SLP106 DENSITY
ALT 800FT=

Extra information for CYXR:More info

Metar Taf Metar & Taf Last 4 Metars F.Rules Stats Wind Profile Meteogram Temp Stats Airport Information Weather charts Add Link Nearby VenuesMetar ALERT Operation Metar Decoded Social comments